createdAt,value
2022-08-25T00:00:21.526Z,51.26
2022-08-25T00:02:55.169Z,51.62
2022-08-25T00:05:29.417Z,51.62
2022-08-25T00:08:01.542Z,52.00
2022-08-25T00:10:31.116Z,51.94
2022-08-25T00:12:59.943Z,52.22
2022-08-25T00:15:32.179Z,52.16
2022-08-25T00:18:01.614Z,52.32
2022-08-25T00:20:31.448Z,52.57
2022-08-25T00:22:59.842Z,52.39
2022-08-25T00:25:28.319Z,52.67
2022-08-25T00:27:57.260Z,52.91
2022-08-25T00:30:25.698Z,52.87
2022-08-25T00:32:55.258Z,52.96
2022-08-25T00:35:27.223Z,52.97
2022-08-25T00:37:57.177Z,53.48
2022-08-25T00:40:28.329Z,53.40
2022-08-25T00:42:57.277Z,53.68
2022-08-25T00:45:26.415Z,53.67
2022-08-25T00:47:59.769Z,53.79
2022-08-25T00:50:29.925Z,54.13
2022-08-25T00:53:02.499Z,53.92
2022-08-25T00:55:36.141Z,54.01
2022-08-25T00:58:13.994Z,54.55
2022-08-25T01:00:46.840Z,54.24
2022-08-25T01:03:15.267Z,54.72
2022-08-25T01:05:46.509Z,54.79
2022-08-25T01:08:21.142Z,54.68
2022-08-25T01:10:51.452Z,54.79
2022-08-25T01:13:25.697Z,55.12
2022-08-25T01:15:57.205Z,54.88
2022-08-25T01:18:25.897Z,54.77
2022-08-25T01:20:56.720Z,55.02
2022-08-25T01:23:26.313Z,55.29
2022-08-25T01:26:03.683Z,55.48
2022-08-25T01:28:32.487Z,55.97
2022-08-25T01:31:00.992Z,55.76
2022-08-25T01:33:29.612Z,56.12
2022-08-25T01:35:59.328Z,56.24
2022-08-25T01:38:27.810Z,56.57
2022-08-25T01:40:56.115Z,56.47
2022-08-25T01:43:38.056Z,57.29
2022-08-25T01:46:06.643Z,57.11
2022-08-25T01:48:35.669Z,57.81
2022-08-25T01:51:05.705Z,57.70
2022-08-25T01:53:34.567Z,58.01
2022-08-25T01:56:11.399Z,58.14
2022-08-25T01:58:45.951Z,58.59
2022-08-25T02:01:17.779Z,58.62
2022-08-25T02:03:49.867Z,58.83
2022-08-25T02:06:29.808Z,59.21
2022-08-25T02:09:02.100Z,59.11
2022-08-25T02:11:30.733Z,59.37
2022-08-25T02:13:59.944Z,59.56
2022-08-25T02:16:32.457Z,59.71
2022-08-25T02:19:01.635Z,60.11
2022-08-25T02:21:32.479Z,59.89
2022-08-25T02:24:01.278Z,60.17
2022-08-25T02:26:30.490Z,60.50
2022-08-25T02:28:58.810Z,60.71
2022-08-25T02:31:27.693Z,60.86
2022-08-25T02:33:57.090Z,60.95
2022-08-25T02:36:25.744Z,60.98
2022-08-25T02:38:55.438Z,61.24
2022-08-25T02:41:31.510Z,61.30
2022-08-25T02:44:00.845Z,61.07
2022-08-25T02:46:31.077Z,61.36
2022-08-25T02:48:59.723Z,61.37
2022-08-25T02:51:30.140Z,61.69
2022-08-25T02:54:03.059Z,61.67
2022-08-25T02:56:32.855Z,61.52
2022-08-25T02:59:01.891Z,61.89
2022-08-25T03:01:32.292Z,62.00
2022-08-25T03:04:02.728Z,61.99
2022-08-25T03:06:31.833Z,62.15
2022-08-25T03:09:01.702Z,62.46
2022-08-25T03:11:30.227Z,63.07
2022-08-25T03:13:58.767Z,63.02
2022-08-25T03:16:28.081Z,63.19
2022-08-25T03:18:57.926Z,63.23
2022-08-25T03:21:27.071Z,63.37
2022-08-25T03:23:56.510Z,63.63
2022-08-25T03:26:43.700Z,63.69
2022-08-25T03:29:13.770Z,63.87
2022-08-25T03:31:44.702Z,64.07
2022-08-25T03:34:13.368Z,64.13
2022-08-25T03:36:41.994Z,64.25
2022-08-25T03:39:10.652Z,64.22
2022-08-25T03:41:41.232Z,64.40
2022-08-25T03:44:10.583Z,64.30
2022-08-25T03:46:43.167Z,64.59
2022-08-25T03:49:16.169Z,64.65
2022-08-25T03:51:48.379Z,64.88
2022-08-25T03:54:18.440Z,64.78
2022-08-25T03:56:48.132Z,64.88
2022-08-25T03:59:16.774Z,65.05
2022-08-25T04:01:50.271Z,65.00
2022-08-25T04:04:21.138Z,64.80
2022-08-25T04:06:49.467Z,64.94
2022-08-25T04:09:17.757Z,64.79
2022-08-25T04:11:47.451Z,65.11
2022-08-25T04:14:21.058Z,64.98
2022-08-25T04:16:49.426Z,65.23
2022-08-25T04:19:17.808Z,65.42
2022-08-25T04:21:46.194Z,65.68
2022-08-25T04:24:15.438Z,65.92
2022-08-25T04:26:49.708Z,65.90
2022-08-25T04:29:23.547Z,65.81
2022-08-25T04:31:53.495Z,65.78
2022-08-25T04:34:29.966Z,66.01
2022-08-25T04:37:01.765Z,66.26
2022-08-25T04:39:30.923Z,66.02
2022-08-25T04:42:01.200Z,66.20
2022-08-25T04:44:30.572Z,66.40
2022-08-25T04:46:59.435Z,66.65
2022-08-25T04:49:28.360Z,66.96
2022-08-25T04:51:57.579Z,67.06
2022-08-25T04:54:26.083Z,67.12
2022-08-25T04:56:58.394Z,67.03
2022-08-25T04:59:29.549Z,67.04
2022-08-25T05:02:02.258Z,66.71
2022-08-25T05:04:32.100Z,66.77
2022-08-25T05:07:01.147Z,66.70
2022-08-25T05:09:32.266Z,67.35
2022-08-25T05:12:02.264Z,67.14
2022-08-25T05:14:33.159Z,67.33
2022-08-25T05:17:02.117Z,67.18
2022-08-25T05:19:30.519Z,67.40
2022-08-25T05:21:58.850Z,67.24
2022-08-25T05:24:27.899Z,67.23
2022-08-25T05:26:56.548Z,67.45
2022-08-25T05:29:25.239Z,67.52
2022-08-25T05:31:55.191Z,67.72
2022-08-25T05:34:24.915Z,67.73
2022-08-25T05:36:53.295Z,67.86
2022-08-25T05:39:21.577Z,67.83
2022-08-25T05:41:49.989Z,67.94
2022-08-25T05:44:21.145Z,67.95
2022-08-25T05:46:51.129Z,68.07
2022-08-25T05:49:21.208Z,67.96
2022-08-25T05:51:49.734Z,68.07
2022-08-25T05:54:18.208Z,68.44
2022-08-25T05:56:46.690Z,68.92
2022-08-25T05:59:15.343Z,68.65
2022-08-25T06:02:01.608Z,68.49
2022-08-25T06:04:31.340Z,68.90
2022-08-25T06:06:59.672Z,68.74
2022-08-25T06:09:28.172Z,68.80
2022-08-25T06:11:56.526Z,69.06
2022-08-25T06:14:25.522Z,68.91
2022-08-25T06:16:54.131Z,68.87
2022-08-25T06:19:23.249Z,69.03
2022-08-25T06:21:56.608Z,68.96
2022-08-25T06:24:26.430Z,69.31
2022-08-25T06:26:56.086Z,70.14
2022-08-25T06:29:24.734Z,69.65
2022-08-25T06:31:53.537Z,69.89
2022-08-25T06:34:23.886Z,69.80
2022-08-25T06:36:53.277Z,70.03
2022-08-25T06:39:24.012Z,69.77
2022-08-25T06:41:53.843Z,70.29
2022-08-25T06:44:22.839Z,70.04
2022-08-25T06:46:51.791Z,70.30
2022-08-25T06:49:20.283Z,70.17
2022-08-25T06:51:49.536Z,69.73
2022-08-25T06:54:17.962Z,69.29
2022-08-25T06:56:49.607Z,69.35
2022-08-25T06:59:19.000Z,68.78
2022-08-25T07:01:49.679Z,69.53
2022-08-25T07:04:18.707Z,69.56
2022-08-25T07:06:47.192Z,69.50
2022-08-25T07:09:16.297Z,69.86
2022-08-25T07:11:47.175Z,69.32
2022-08-25T07:14:18.329Z,69.25
2022-08-25T07:16:50.437Z,69.44
2022-08-25T07:19:21.408Z,69.27
2022-08-25T07:21:54.241Z,69.78
2022-08-25T07:24:23.876Z,69.38
2022-08-25T07:26:54.209Z,68.55
2022-08-25T07:32:13.000Z,68.56
2022-08-25T07:34:59.272Z,68.28
2022-08-25T07:37:47.835Z,68.62
2022-08-25T07:40:19.854Z,67.74
2022-08-25T07:42:49.990Z,67.56
2022-08-25T07:45:20.761Z,66.83
2022-08-25T07:47:52.077Z,67.01
2022-08-25T07:50:21.797Z,66.55
2022-08-25T07:52:55.271Z,65.94
2022-08-25T07:55:24.637Z,67.13
2022-08-25T07:58:10.991Z,66.65
2022-08-25T08:00:42.359Z,66.77
2022-08-25T08:03:19.906Z,66.76
2022-08-25T08:05:59.895Z,66.59
2022-08-25T08:08:28.788Z,66.40
2022-08-25T08:11:05.398Z,66.44
2022-08-25T08:13:40.773Z,65.98
2022-08-25T08:16:10.874Z,66.00
2022-08-25T08:18:42.474Z,65.82
2022-08-25T08:21:14.184Z,65.16
2022-08-25T08:23:49.288Z,64.70
2022-08-25T08:26:18.491Z,64.43
2022-08-25T08:28:51.921Z,64.38
2022-08-25T08:31:21.645Z,64.25
2022-08-25T08:33:52.155Z,63.74
2022-08-25T08:36:22.722Z,64.27
2022-08-25T08:38:54.708Z,63.74
2022-08-25T08:42:18.495Z,63.16
2022-08-25T08:45:18.200Z,62.83
2022-08-25T08:48:02.878Z,63.69
2022-08-25T08:50:44.539Z,62.63
2022-08-25T08:53:19.673Z,62.40
2022-08-25T08:55:54.523Z,62.93
2022-08-25T08:58:28.061Z,62.86
2022-08-25T09:01:01.812Z,62.73
2022-08-25T09:03:36.051Z,62.75
2022-08-25T09:06:13.691Z,62.98
2022-08-25T09:08:45.021Z,61.73
2022-08-25T09:11:24.841Z,60.27
2022-08-25T09:14:11.065Z,60.34
2022-08-25T09:16:58.289Z,60.54
2022-08-25T09:19:47.177Z,60.33
2022-08-25T09:25:18.782Z,58.65
2022-08-25T09:28:02.991Z,59.50
2022-08-25T09:30:42.031Z,59.58
2022-08-25T09:33:20.989Z,58.60
2022-08-25T09:35:53.682Z,57.49
2022-08-25T09:38:22.824Z,57.22
2022-08-25T09:40:55.615Z,58.32
2022-08-25T09:43:32.065Z,58.16
2022-08-25T09:46:03.855Z,57.22
2022-08-25T09:48:40.868Z,56.48
2022-08-25T09:51:21.242Z,57.40
2022-08-25T09:53:56.601Z,55.53
2022-08-25T09:56:27.864Z,55.55
2022-08-25T09:59:03.120Z,56.65
2022-08-25T10:01:34.667Z,56.82
2022-08-25T10:04:10.772Z,56.77
2022-08-25T10:06:49.106Z,54.56
2022-08-25T10:09:30.401Z,54.35
2022-08-25T10:12:04.824Z,55.00
2022-08-25T10:14:38.803Z,54.41
2022-08-25T10:17:24.650Z,55.29
2022-08-25T10:20:17.673Z,55.17
2022-08-25T10:22:48.323Z,54.73
2022-08-25T10:25:26.521Z,55.34
2022-08-25T10:28:08.265Z,54.93
2022-08-25T10:30:56.252Z,54.92
2022-08-25T10:33:36.331Z,54.38
2022-08-25T10:36:15.398Z,53.78
2022-08-25T10:38:55.654Z,54.73
2022-08-25T10:41:49.369Z,54.40
2022-08-25T10:44:59.075Z,54.78
2022-08-25T10:47:55.434Z,54.02
2022-08-25T10:50:30.547Z,54.90
2022-08-25T10:53:16.949Z,53.53
2022-08-25T10:55:57.576Z,52.72
2022-08-25T10:59:04.594Z,52.75
2022-08-25T11:01:48.838Z,52.79
2022-08-25T11:04:29.853Z,52.62
2022-08-25T11:07:05.871Z,51.85
2022-08-25T11:09:41.726Z,51.99
2022-08-25T11:12:15.360Z,52.81
2022-08-25T11:14:51.243Z,53.07
2022-08-25T11:17:26.037Z,52.25
2022-08-25T11:19:58.968Z,51.76
2022-08-25T11:22:33.435Z,51.74
2022-08-25T11:25:13.025Z,51.50
2022-08-25T11:27:53.524Z,50.51
2022-08-25T11:30:23.053Z,50.11
2022-08-25T11:32:56.757Z,50.40
2022-08-25T11:35:32.375Z,50.06
2022-08-25T11:38:26.425Z,49.78
2022-08-25T11:41:11.135Z,48.81
2022-08-25T11:43:51.139Z,48.14
2022-08-25T11:46:39.316Z,48.25
2022-08-25T11:49:32.546Z,48.95
2022-08-25T11:52:02.958Z,47.12
2022-08-25T11:54:38.775Z,46.95
2022-08-25T11:57:22.786Z,48.24
2022-08-25T12:00:11.317Z,47.83
2022-08-25T12:02:43.660Z,46.58
2022-08-25T12:05:47.653Z,46.64
2022-08-25T12:08:33.712Z,46.99
2022-08-25T12:11:10.953Z,44.81
2022-08-25T12:13:48.411Z,43.37
2022-08-25T12:16:43.535Z,43.83
2022-08-25T12:19:32.908Z,44.28
2022-08-25T12:22:56.697Z,44.32
2022-08-25T12:25:50.299Z,43.71
2022-08-25T12:28:58.869Z,42.93
2022-08-25T12:32:04.645Z,41.33
2022-08-25T12:34:54.712Z,43.33
2022-08-25T12:37:25.583Z,41.30
2022-08-25T12:40:01.446Z,41.10
2022-08-25T12:42:33.535Z,40.89
2022-08-25T12:45:35.236Z,40.79
2022-08-25T12:48:56.823Z,40.91
2022-08-25T12:51:28.419Z,39.54
2022-08-25T12:54:12.104Z,37.32
2022-08-25T12:56:49.263Z,36.42
2022-08-25T12:59:21.417Z,36.72
2022-08-25T13:02:11.900Z,36.76
2022-08-25T13:05:04.708Z,35.39
2022-08-25T13:08:15.109Z,34.92
2022-08-25T13:10:50.610Z,35.03
2022-08-25T13:13:36.880Z,34.90
2022-08-25T13:16:10.799Z,34.80
2022-08-25T13:18:41.548Z,34.77
2022-08-25T13:21:18.141Z,34.34
2022-08-25T13:23:49.782Z,35.22
2022-08-25T13:26:25.597Z,34.29
2022-08-25T13:28:59.443Z,33.93
2022-08-25T13:31:29.874Z,33.74
2022-08-25T13:34:03.266Z,33.33
2022-08-25T13:37:01.340Z,33.38
2022-08-25T13:39:55.096Z,33.35
2022-08-25T13:42:27.415Z,33.40
2022-08-25T13:44:57.639Z,32.95
2022-08-25T13:47:43.842Z,33.41
2022-08-25T13:50:23.155Z,33.42
2022-08-25T13:52:58.225Z,34.10
2022-08-25T13:55:38.222Z,32.95
2022-08-25T13:58:24.195Z,32.94
2022-08-25T14:01:23.114Z,32.79
2022-08-25T14:04:21.892Z,32.81
2022-08-25T14:07:14.843Z,32.69
2022-08-25T14:09:52.512Z,33.05
2022-08-25T14:12:37.821Z,33.17
2022-08-25T14:15:13.876Z,33.34
2022-08-25T14:20:25.586Z,33.26
2022-08-25T14:23:00.215Z,33.94
2022-08-25T14:25:31.845Z,33.77
2022-08-25T14:28:07.330Z,34.75
2022-08-25T14:30:41.015Z,33.58
2022-08-25T14:33:13.310Z,33.27
2022-08-25T14:35:44.734Z,33.18
2022-08-25T14:38:15.515Z,33.73
2022-08-25T14:40:45.742Z,33.48
2022-08-25T14:43:14.849Z,33.98
2022-08-25T14:45:46.438Z,34.09
2022-08-25T14:48:26.119Z,33.87
2022-08-25T14:50:57.663Z,34.22
2022-08-25T14:53:28.717Z,33.84
2022-08-25T14:55:59.106Z,33.51
2022-08-25T14:58:33.888Z,33.69
2022-08-25T15:01:06.133Z,33.83
2022-08-25T15:03:42.823Z,34.10
2022-08-25T15:06:18.677Z,34.04
2022-08-25T15:09:05.872Z,33.26
2022-08-25T15:11:35.257Z,31.85
2022-08-25T15:14:03.948Z,32.06
2022-08-25T15:16:37.866Z,32.65
2022-08-25T15:19:08.231Z,32.09
2022-08-25T15:21:37.289Z,32.41
2022-08-25T15:24:08.734Z,31.86
2022-08-25T15:26:44.495Z,30.39
2022-08-25T15:29:12.954Z,30.22
2022-08-25T15:31:41.519Z,30.80
2022-08-25T15:34:11.822Z,30.51
2022-08-25T15:36:41.550Z,30.31
2022-08-25T15:39:12.591Z,29.29
2022-08-25T15:41:42.817Z,29.46
2022-08-25T15:44:11.441Z,28.91
2022-08-25T15:46:46.961Z,29.58
2022-08-25T15:49:23.087Z,28.01
2022-08-25T15:51:54.349Z,28.55
2022-08-25T15:54:26.761Z,29.81
2022-08-25T15:56:56.597Z,29.69
2022-08-25T15:59:26.017Z,28.03
2022-08-25T16:01:56.715Z,27.41
2022-08-25T16:04:28.791Z,27.14
2022-08-25T16:06:57.172Z,26.62
2022-08-25T16:09:28.624Z,26.44
2022-08-25T16:12:03.936Z,26.48
2022-08-25T16:14:32.547Z,26.01
2022-08-25T16:17:01.107Z,25.97
2022-08-25T16:19:30.393Z,27.45
2022-08-25T16:22:00.140Z,26.02
2022-08-25T16:24:30.004Z,26.03
2022-08-25T16:27:11.771Z,25.75
2022-08-25T16:29:41.924Z,25.81
2022-08-25T16:32:11.592Z,25.69
2022-08-25T16:34:43.211Z,25.77
2022-08-25T16:37:13.467Z,25.41
2022-08-25T16:39:45.569Z,25.39
2022-08-25T16:42:15.207Z,25.37
2022-08-25T16:44:43.590Z,25.34
2022-08-25T16:47:14.269Z,25.34
2022-08-25T16:49:47.138Z,25.05
2022-08-25T16:52:40.575Z,25.45
2022-08-25T16:55:13.583Z,25.82
2022-08-25T16:57:45.299Z,25.90
2022-08-25T17:00:21.798Z,25.56
2022-08-25T17:02:54.211Z,25.49
2022-08-25T17:05:22.896Z,25.40
2022-08-25T17:08:05.700Z,25.36
2022-08-25T17:10:38.416Z,25.65
2022-08-25T17:13:07.862Z,25.65
2022-08-25T17:15:40.613Z,25.80
2022-08-25T17:18:09.162Z,26.24
2022-08-25T17:20:39.889Z,26.49
2022-08-25T17:23:12.774Z,26.62
2022-08-25T17:25:44.181Z,26.93
2022-08-25T17:28:13.561Z,26.65
2022-08-25T17:30:43.325Z,27.33
2022-08-25T17:33:12.290Z,27.35
2022-08-25T17:35:42.777Z,27.35
2022-08-25T17:38:13.025Z,27.54
2022-08-25T17:40:43.248Z,27.92
2022-08-25T17:43:12.676Z,27.81
2022-08-25T17:45:41.951Z,28.23
2022-08-25T17:48:13.880Z,28.72
2022-08-25T17:50:42.616Z,28.65
2022-08-25T17:53:12.278Z,29.65
2022-08-25T17:55:43.541Z,29.04
2022-08-25T17:58:17.062Z,29.22
2022-08-25T18:00:47.030Z,29.47
2022-08-25T18:03:15.324Z,29.42
2022-08-25T18:05:45.014Z,30.21
2022-08-25T18:08:14.617Z,29.86
2022-08-25T18:10:44.679Z,29.98
2022-08-25T18:13:13.639Z,30.66
2022-08-25T18:15:43.877Z,30.26
2022-08-25T18:18:12.740Z,30.82
2022-08-25T18:20:41.696Z,30.74
2022-08-25T18:23:12.569Z,31.31
2022-08-25T18:25:42.972Z,30.81
2022-08-25T18:28:13.104Z,30.97
2022-08-25T18:30:43.114Z,31.67
2022-08-25T18:33:12.101Z,31.65
2022-08-25T18:35:40.508Z,31.64
2022-08-25T18:38:27.732Z,31.93
2022-08-25T18:40:58.242Z,32.30
2022-08-25T18:43:31.910Z,31.91
2022-08-25T18:46:04.680Z,32.61
2022-08-25T18:48:34.431Z,32.46
2022-08-25T18:51:03.040Z,32.61
2022-08-25T18:53:37.461Z,32.60
2022-08-25T18:56:19.184Z,32.81
2022-08-25T18:58:49.508Z,32.84
2022-08-25T19:01:20.543Z,33.09
2022-08-25T19:03:50.613Z,33.49
2022-08-25T19:06:20.754Z,33.50
2022-08-25T19:08:49.602Z,33.68
2022-08-25T19:11:22.314Z,33.75
2022-08-25T19:13:52.640Z,33.82
2022-08-25T19:16:34.642Z,34.21
2022-08-25T19:19:06.397Z,34.22
2022-08-25T19:21:38.610Z,34.54
2022-08-25T19:24:08.153Z,34.49
2022-08-25T19:26:38.166Z,34.69
2022-08-25T19:29:14.960Z,34.87
2022-08-25T19:31:46.614Z,35.18
2022-08-25T19:34:21.459Z,35.11
2022-08-25T19:36:50.781Z,35.29
2022-08-25T19:39:19.975Z,35.34
2022-08-25T19:41:49.016Z,35.48
2022-08-25T19:44:19.273Z,35.74
2022-08-25T19:46:47.851Z,35.95
2022-08-25T19:49:26.160Z,36.32
2022-08-25T19:51:57.139Z,36.57
2022-08-25T19:54:30.232Z,36.53
2022-08-25T19:56:59.529Z,37.27
2022-08-25T19:59:40.435Z,36.75
2022-08-25T20:02:16.125Z,36.93
2022-08-25T20:04:49.593Z,37.23
2022-08-25T20:07:19.208Z,37.64
2022-08-25T20:09:48.190Z,37.49
2022-08-25T20:12:17.346Z,37.99
2022-08-25T20:14:48.192Z,37.86
2022-08-25T20:17:23.868Z,38.23
2022-08-25T20:19:55.916Z,38.44
2022-08-25T20:22:26.828Z,38.43
2022-08-25T20:24:57.893Z,38.24
2022-08-25T20:27:34.519Z,38.66
2022-08-25T20:30:08.944Z,38.76
2022-08-25T20:32:37.801Z,38.70
2022-08-25T20:35:09.924Z,39.08
2022-08-25T20:37:42.076Z,39.27
2022-08-25T20:40:12.403Z,39.96
2022-08-25T20:42:41.437Z,40.28
2022-08-25T20:45:17.800Z,40.07
2022-08-25T20:47:46.212Z,40.55
2022-08-25T20:50:43.023Z,40.46
2022-08-25T20:53:13.714Z,40.68
2022-08-25T20:55:43.740Z,40.80
2022-08-25T20:58:12.691Z,40.78
2022-08-25T21:00:44.690Z,41.27
2022-08-25T21:03:13.618Z,41.14
2022-08-25T21:05:43.886Z,41.70
2022-08-25T21:08:12.931Z,41.48
2022-08-25T21:10:41.781Z,41.99
2022-08-25T21:13:10.354Z,41.93
2022-08-25T21:15:40.450Z,42.13
2022-08-25T21:18:10.358Z,42.14
2022-08-25T21:20:40.294Z,42.23
2022-08-25T21:23:08.829Z,42.42
2022-08-25T21:25:42.259Z,42.13
2022-08-25T21:28:10.788Z,42.61
2022-08-25T21:30:44.692Z,42.88
2022-08-25T21:33:17.404Z,42.84
2022-08-25T21:35:47.183Z,42.69
2022-08-25T21:38:16.169Z,43.10
2022-08-25T21:40:45.069Z,43.82
2022-08-25T21:43:13.689Z,44.54
2022-08-25T21:45:46.764Z,44.68
2022-08-25T21:48:17.624Z,45.66
2022-08-25T21:50:46.377Z,46.10
2022-08-25T21:53:14.846Z,46.42
2022-08-25T21:55:45.205Z,46.93
2022-08-25T21:58:13.702Z,47.02
2022-08-25T22:00:44.583Z,47.12
2022-08-25T22:03:13.206Z,47.20
2022-08-25T22:05:43.226Z,46.81
2022-08-25T22:08:14.349Z,47.04
2022-08-25T22:10:45.543Z,47.16
2022-08-25T22:13:14.199Z,46.79
2022-08-25T22:15:42.905Z,46.83
2022-08-25T22:18:11.467Z,47.06
2022-08-25T22:20:41.427Z,47.04
2022-08-25T22:23:20.485Z,47.24
2022-08-25T22:25:49.443Z,47.21
2022-08-25T22:28:20.011Z,47.35
2022-08-25T22:30:49.153Z,47.13
2022-08-25T22:33:18.156Z,47.31
2022-08-25T22:35:47.066Z,47.36
2022-08-25T22:38:17.205Z,47.24
2022-08-25T22:40:46.453Z,47.50
2022-08-25T22:43:15.053Z,47.86
2022-08-25T22:45:43.768Z,47.83
2022-08-25T22:48:12.368Z,47.87
2022-08-25T22:50:40.892Z,47.92
2022-08-25T22:53:09.523Z,48.06
2022-08-25T22:55:44.654Z,48.29
2022-08-25T22:58:15.964Z,48.55
2022-08-25T23:00:44.513Z,48.49
2022-08-25T23:03:13.148Z,48.74
2022-08-25T23:05:41.757Z,48.74
2022-08-25T23:08:10.251Z,49.15
2022-08-25T23:10:38.721Z,49.11
2022-08-25T23:13:08.892Z,49.28
2022-08-25T23:15:37.971Z,49.36
2022-08-25T23:18:07.763Z,49.45
2022-08-25T23:20:53.656Z,49.66
2022-08-25T23:23:22.718Z,49.95
2022-08-25T23:25:51.384Z,50.15
2022-08-25T23:28:22.084Z,50.21
2022-08-25T23:30:59.372Z,50.48
2022-08-25T23:33:28.578Z,50.80
2022-08-25T23:36:01.150Z,50.54
2022-08-25T23:38:29.745Z,50.51
2022-08-25T23:40:59.528Z,50.74
2022-08-25T23:43:29.640Z,51.03
2022-08-25T23:45:58.787Z,51.11
2022-08-25T23:48:27.736Z,51.21
2022-08-25T23:50:57.572Z,51.19
2022-08-25T23:53:26.506Z,51.38
2022-08-25T23:55:56.137Z,51.74
2022-08-25T23:58:26.027Z,51.73
